Gibson, Georgia
Current Conditions -  °F | °C
As of 2:55 AM on Wednesday 26 Nov 2014 (Local Time) from KHQU Reporting Station
Overcast Overcast  
Wind Chill: 45°   Ceiling: 4900
Heat Index: 47°   Visibility: 7mi
Dew Point: 47°   Wind: 6mph
Humidity: 100%   Direction: 310°NW
Pressure: 29.99"   Gusts: NA
Location:  33.23°N, 82.6°W
Report Text: KHQU 260755Z AUTO 31005KT 7SM SCT041 OVC049 09/09 A2999 RMK AO1 T00860086
Loading
Personal Weather Stations






























Interactive Weather Map New forecast layout! Learn more

10-Day Weather Forecast

Advertisements
Track Severe Weather on mobile